WetterOnline ( https://www.wetteronline.de )

Wetter aktuell Pähl

Aktuelles Wetter: Hohenpeißenberg (986m)

6-stündlich | Neueste Meldungen
Ortszeit Temperatur Wetter
So, 25.08. 2:00 16.9° C wolkenlos
Sa, 24.08. 20:00 19.6° C bewölkt
Sa, 24.08. 14:00 20.5° C wolkenlos
Sa, 24.08. 8:00 14.6° C bedeckt
Sa, 24.08. 2:00 15.0° C wolkig
Fr, 23.08. 20:00 15.9° C bedeckt
Fr, 23.08. 14:00 16.0° C bewölkt
Fr, 23.08. 8:00 11.9° C Nebel
Ortszeit Temperatur Wetter
So, 25.08. 4:00 16.5° C leicht bewölkt
So, 25.08. 3:50 16.5° C leicht bewölkt
So, 25.08. 3:40 16.8° C leicht bewölkt
So, 25.08. 3:30 16.5° C wolkig
So, 25.08. 3:20 16.5° C wolkig
So, 25.08. 3:10 16.2° C wolkig
So, 25.08. 3:00 16.1° C wolkig
So, 25.08. 2:30 16.5° C wolkenlos
So, 25.08. 2:00 16.9° C wolkenlos
So, 25.08. 1:30 17.1° C leicht bewölkt
So, 25.08. 1:00 16.7° C wolkig
Ortszeit Relative Feuchte Sichtweite
So, 25.08. 2:00 76% 40 km
Sa, 24.08. 20:00 68% 45 km
Sa, 24.08. 14:00 72% 21 km
Sa, 24.08. 8:00 100% <100 m
Sa, 24.08. 2:00 96% 5.0 km
Fr, 23.08. 20:00 93% 11 km
Fr, 23.08. 14:00 86% 19 km
Fr, 23.08. 8:00 100% 0.3 km
Ortszeit Relative Feuchte Sichtweite
So, 25.08. 4:00 75% 45 km
So, 25.08. 3:50 75% -
So, 25.08. 3:40 74% -
So, 25.08. 3:30 76% 45 km
So, 25.08. 3:20 76% -
So, 25.08. 3:10 78% -
So, 25.08. 3:00 79% 40 km
So, 25.08. 2:30 78% 40 km
So, 25.08. 2:00 76% 40 km
So, 25.08. 1:30 80% 40 km
So, 25.08. 1:00 83% 30 km
Ortszeit Niederschlagsmenge Niederschlagsart
So, 25.08. 2:00 0.0 l/m2 in 6 Std. -
Sa, 24.08. 20:00 0.0 l/m2 in 12 Std. -
Sa, 24.08. 14:00 0.0 l/m2 in 6 Std. -
Sa, 24.08. 8:00 0.0 l/m2 in 12 Std. -
Sa, 24.08. 2:00 0.0 l/m2 in 6 Std. -
Fr, 23.08. 20:00 0.0 l/m2 in 12 Std. -
Fr, 23.08. 14:00 0.0 l/m2 in 6 Std. -
Fr, 23.08. 8:00 0.0 l/m2 in 12 Std. -
Ortszeit Niederschlagsmenge Niederschlagsart
So, 25.08. 4:00 0.0 l/m2 in 1 Std. -
So, 25.08. 3:50 keine Meldung -
So, 25.08. 3:40 keine Meldung -
So, 25.08. 3:30 0.0 l/m2 in 1 Std. -
So, 25.08. 3:20 keine Meldung -
So, 25.08. 3:10 keine Meldung -
So, 25.08. 3:00 0.0 l/m2 in 1 Std. -
So, 25.08. 2:30 0.0 l/m2 in 1 Std. -
So, 25.08. 2:00 0.0 l/m2 in 1 Std. -
So, 25.08. 1:30 0.0 l/m2 in 1 Std. -
So, 25.08. 1:00 0.0 l/m2 in 1 Std. -
Ortszeit Stärke Spitze Richtung
km/h Bft. km/h Grad Sektor
So, 25.08. 2:00 13 3 26 270° W
Sa, 24.08. 20:00 13 3 26 120° SO
Sa, 24.08. 14:00 7 2 18 10° N
Sa, 24.08. 8:00 4 1 18 60° NO
Sa, 24.08. 2:00 11 2 22 70° O
Fr, 23.08. 20:00 13 3 24 40° NO
Fr, 23.08. 14:00 11 2 29 50° NO
Fr, 23.08. 8:00 11 2 25 70° O
Ortszeit Stärke Spitze Richtung
km/h Bft. km/h Grad Sektor
So, 25.08. 4:00 13 3 19 270° W
So, 25.08. 3:50 13 3 - 270° W
So, 25.08. 3:40 13 3 - 280° W
So, 25.08. 3:30 15 3 19 270° W
So, 25.08. 3:20 15 3 - 270° W
So, 25.08. 3:10 14 3 - 260° W
So, 25.08. 3:00 14 3 18 250° W
So, 25.08. 2:30 14 3 18 250° W
So, 25.08. 2:00 13 3 17 270° W
So, 25.08. 1:30 4 1 11 180° S
So, 25.08. 1:00 7 2 11 220° SW
Ortszeit Untergrenze Bedeckung Gattung
total tief tief mittel hoch
So, 25.08. 2:00 - 0/8 0/8 - - -
Sa, 24.08. 20:00 2100 m 8/8 6/8 - - -
Sa, 24.08. 14:00 - 0/8 0/8 - - -
Sa, 24.08. 8:00 <30 m 8/8 0/8 - - -
Sa, 24.08. 2:00 9000 m 8/8 0/8 - - -
Fr, 23.08. 20:00 240 m 8/8 8/8 - - -
Fr, 23.08. 14:00 270 m 7/8 7/8 - - -
Fr, 23.08. 8:00 30 m 8/8 8/8 - - -
Ortszeit Bedeckungsgrad in Achtel und Wolkenuntergrenze
So, 25.08. 4:00 5(8400m)
So, 25.08. 3:50 5(8400m)
So, 25.08. 3:40 4(8400m)
So, 25.08. 3:30 7(8400m) 7(9000m)
So, 25.08. 3:20 7(8400m) 7(9000m)
So, 25.08. 3:10 6(8100m) 8(8700m)
So, 25.08. 3:00 7(8100m) 7(8700m)
So, 25.08. 2:30 3(8400m)
So, 25.08. 2:00 keine Wolken
So, 25.08. 1:30 6(8100m)
So, 25.08. 1:00 8(8400m)
Ortszeit Stationsdruck (hPa) Tendenz (hPa in 3 Std.)
So, 25.08. 2:00 909 - 0,6
Sa, 24.08. 20:00 910 + 0,2
Sa, 24.08. 14:00 910 - 0,1
Sa, 24.08. 8:00 909 - 0,2
Sa, 24.08. 2:00 910 - 1,2
Fr, 23.08. 20:00 912 - 0,1
Fr, 23.08. 14:00 913 - 0,1
Fr, 23.08. 8:00 913 + 0,2
Ortszeit Stationsdruck (hPa) Tendenz (hPa in 3 Std.)
So, 25.08. 4:00 909 - 0,3
So, 25.08. 3:50 909 keine Meldung
So, 25.08. 3:40 908 keine Meldung
So, 25.08. 3:30 908 - 0,1
So, 25.08. 3:20 908 keine Meldung
So, 25.08. 3:10 908 keine Meldung
So, 25.08. 3:00 909 + 0,1
So, 25.08. 2:30 909 - 0,1
So, 25.08. 2:00 909 - 0,6
So, 25.08. 1:30 909 - 0,6
So, 25.08. 1:00 909 - 0,5
Ortszeit Schneehöhe (cm)
So, 25.08. 2:00 -
Sa, 24.08. 20:00 -
Sa, 24.08. 14:00 -
Sa, 24.08. 8:00 -
Sa, 24.08. 2:00 -
Fr, 23.08. 20:00 -
Fr, 23.08. 14:00 -
Fr, 23.08. 8:00 -
Ortszeit Schneehöhe (cm)
So, 25.08. 4:00 -
So, 25.08. 3:50 -
So, 25.08. 3:40 -
So, 25.08. 3:30 -
So, 25.08. 3:20 -
So, 25.08. 3:10 -
So, 25.08. 3:00 -
So, 25.08. 2:30 -
So, 25.08. 2:00 -
So, 25.08. 1:30 -
So, 25.08. 1:00 -
Link zu dieser Seite / Seite empfehlen

Das Wetter in ...